sensor_id;sensor_type;location;lat;lon;timestamp;pressure;altitude;pressure_sealevel;temperature;humidity
64853;BME280;56050;55.558;-4.644;2024-03-23T00:54:51;100753.47;;;7.31;66.66
64853;BME280;56050;55.558;-4.644;2024-03-23T00:57:17;100755.81;;;7.36;66.62
64853;BME280;56050;55.558;-4.644;2024-03-23T00:59:42;100757.38;;;7.37;66.73
64853;BME280;56050;55.558;-4.644;2024-03-23T01:02:07;100730.53;;;7.33;66.85
64853;BME280;56050;55.558;-4.644;2024-03-23T01:04:33;100735.84;;;7.30;66.83
64853;BME280;56050;55.558;-4.644;2024-03-23T01:06:58;100746.09;;;7.24;67.28
64853;BME280;56050;55.558;-4.644;2024-03-23T01:09:23;100732.63;;;7.17;67.47
64853;BME280;56050;55.558;-4.644;2024-03-23T01:11:48;100718.38;;;7.13;67.80
64853;BME280;56050;55.558;-4.644;2024-03-23T01:14:14;100721.03;;;7.09;67.56
64853;BME280;56050;55.558;-4.644;2024-03-23T01:16:39;100717.16;;;7.07;67.28
64853;BME280;56050;55.558;-4.644;2024-03-23T01:19:04;100711.78;;;7.03;66.94
64853;BME280;56050;55.558;-4.644;2024-03-23T01:21:31;100713.25;;;7.01;66.81
64853;BME280;56050;55.558;-4.644;2024-03-23T01:23:57;100704.84;;;7.02;67.06
64853;BME280;56050;55.558;-4.644;2024-03-23T01:26:23;100701.09;;;7.07;67.13
64853;BME280;56050;55.558;-4.644;2024-03-23T01:28:48;100702.75;;;7.15;67.32
64853;BME280;56050;55.558;-4.644;2024-03-23T01:31:13;100702.81;;;7.22;67.18
64853;BME280;56050;55.558;-4.644;2024-03-23T01:33:38;100696.75;;;7.25;67.07
64853;BME280;56050;55.558;-4.644;2024-03-23T01:36:04;100687.94;;;7.25;66.95
64853;BME280;56050;55.558;-4.644;2024-03-23T01:38:30;100679.16;;;7.28;66.96
64853;BME280;56050;55.558;-4.644;2024-03-23T01:40:58;100688.75;;;7.29;66.76
64853;BME280;56050;55.558;-4.644;2024-03-23T01:43:24;100670.00;;;7.29;66.65
64853;BME280;56050;55.558;-4.644;2024-03-23T01:45:49;100679.22;;;7.31;66.39
64853;BME280;56050;55.558;-4.644;2024-03-23T01:48:15;100677.31;;;7.32;66.06
64853;BME280;56050;55.558;-4.644;2024-03-23T01:50:40;100679.63;;;7.33;65.70
64853;BME280;56050;55.558;-4.644;2024-03-23T01:53:06;100670.06;;;7.36;65.51
64853;BME280;56050;55.558;-4.644;2024-03-23T01:55:32;100664.75;;;7.39;65.04
64853;BME280;56050;55.558;-4.644;2024-03-23T01:57:58;100666.34;;;7.44;64.70
64853;BME280;56050;55.558;-4.644;2024-03-23T02:00:23;100662.53;;;7.45;64.54
64853;BME280;56050;55.558;-4.644;2024-03-23T02:02:49;100669.41;;;7.46;64.46
64853;BME280;56050;55.558;-4.644;2024-03-23T02:05:14;100674.47;;;7.51;64.39
64853;BME280;56050;55.558;-4.644;2024-03-23T02:07:41;100679.06;;;7.54;64.08
64853;BME280;56050;55.558;-4.644;2024-03-23T02:10:08;100700.97;;;7.59;63.28
64853;BME280;56050;55.558;-4.644;2024-03-23T02:12:35;100738.03;;;7.54;63.22
64853;BME280;56050;55.558;-4.644;2024-03-23T02:15:03;100726.41;;;7.13;63.85
64853;BME280;56050;55.558;-4.644;2024-03-23T02:17:30;100686.34;;;6.64;65.71
64853;BME280;56050;55.558;-4.644;2024-03-23T02:19:55;100675.88;;;6.29;67.32
64853;BME280;56050;55.558;-4.644;2024-03-23T02:22:21;100660.94;;;6.06;68.15
64853;BME280;56050;55.558;-4.644;2024-03-23T02:24:46;100651.56;;;5.93;68.81
64853;BME280;56050;55.558;-4.644;2024-03-23T02:27:12;100639.88;;;5.81;69.75
64853;BME280;56050;55.558;-4.644;2024-03-23T02:29:37;100622.66;;;5.79;70.04
64853;BME280;56050;55.558;-4.644;2024-03-23T02:32:02;100631.44;;;5.79;70.21
64853;BME280;56050;55.558;-4.644;2024-03-23T02:34:28;100625.41;;;5.82;70.52
64853;BME280;56050;55.558;-4.644;2024-03-23T02:36:53;100627.44;;;5.89;71.05
64853;BME280;56050;55.558;-4.644;2024-03-23T02:39:19;100629.06;;;5.94;71.21
64853;BME280;56050;55.558;-4.644;2024-03-23T02:41:44;100643.38;;;6.05;71.25
64853;BME280;56050;55.558;-4.644;2024-03-23T02:44:10;100635.50;;;6.15;70.87
64853;BME280;56050;55.558;-4.644;2024-03-23T02:46:38;100644.09;;;6.28;70.81
64853;BME280;56050;55.558;-4.644;2024-03-23T02:49:03;100640.88;;;6.41;70.47
64853;BME280;56050;55.558;-4.644;2024-03-23T02:51:30;100639.44;;;6.47;69.31
64853;BME280;56050;55.558;-4.644;2024-03-23T02:53:55;100634.47;;;6.46;68.77
64853;BME280;56050;55.558;-4.644;2024-03-23T02:56:21;100623.31;;;6.44;68.43
64853;BME280;56050;55.558;-4.644;2024-03-23T02:58:46;100624.47;;;6.43;68.23
64853;BME280;56050;55.558;-4.644;2024-03-23T03:01:12;100629.06;;;6.42;68.36
64853;BME280;56050;55.558;-4.644;2024-03-23T03:03:37;100628.94;;;6.35;68.28
64853;BME280;56050;55.558;-4.644;2024-03-23T03:06:03;100620.50;;;6.33;68.49
64853;BME280;56050;55.558;-4.644;2024-03-23T03:08:28;100601.38;;;6.31;68.82
64853;BME280;56050;55.558;-4.644;2024-03-23T03:10:54;100601.38;;;6.31;68.77
64853;BME280;56050;55.558;-4.644;2024-03-23T03:13:20;100601.44;;;6.35;69.03
64853;BME280;56050;55.558;-4.644;2024-03-23T03:15:46;100602.25;;;6.39;68.94
64853;BME280;56050;55.558;-4.644;2024-03-23T03:18:11;100605.03;;;6.46;68.94
64853;BME280;56050;55.558;-4.644;2024-03-23T03:20:49;100598.59;;;6.50;68.94
64853;BME280;56050;55.558;-4.644;2024-03-23T03:23:15;100601.66;;;6.53;69.17
64853;BME280;56050;55.558;-4.644;2024-03-23T03:25:41;100633.13;;;6.59;69.48
64853;BME280;56050;55.558;-4.644;2024-03-23T03:28:06;100613.59;;;6.59;69.62
64853;BME280;56050;55.558;-4.644;2024-03-23T03:30:31;100585.88;;;6.44;69.86
64853;BME280;56050;55.558;-4.644;2024-03-23T03:32:57;100587.59;;;6.29;70.03
64853;BME280;56050;55.558;-4.644;2024-03-23T03:35:22;100575.50;;;6.13;70.35
64853;BME280;56050;55.558;-4.644;2024-03-23T03:37:48;100581.03;;;6.01;70.50
64853;BME280;56050;55.558;-4.644;2024-03-23T03:40:13;100575.59;;;5.94;70.78
64853;BME280;56050;55.558;-4.644;2024-03-23T03:42:40;100568.69;;;5.93;71.34
64853;BME280;56050;55.558;-4.644;2024-03-23T03:45:07;100571.75;;;5.95;71.49
64853;BME280;56050;55.558;-4.644;2024-03-23T03:47:32;100564.63;;;6.02;71.71
64853;BME280;56050;55.558;-4.644;2024-03-23T03:49:57;100564.28;;;6.04;71.52
64853;BME280;56050;55.558;-4.644;2024-03-23T03:52:23;100562.47;;;6.11;71.30
64853;BME280;56050;55.558;-4.644;2024-03-23T03:54:48;100563.72;;;6.17;71.18
64853;BME280;56050;55.558;-4.644;2024-03-23T03:57:13;100555.03;;;6.24;70.92
64853;BME280;56050;55.558;-4.644;2024-03-23T03:59:39;100549.78;;;6.31;70.75
64853;BME280;56050;55.558;-4.644;2024-03-23T04:02:04;100549.09;;;6.37;70.38
64853;BME280;56050;55.558;-4.644;2024-03-23T04:04:30;100566.78;;;6.45;69.92
64853;BME280;56050;55.558;-4.644;2024-03-23T04:06:59;100560.03;;;6.55;69.68
64853;BME280;56050;55.558;-4.644;2024-03-23T04:09:25;100559.34;;;6.62;69.28
64853;BME280;56050;55.558;-4.644;2024-03-23T04:11:50;100574.75;;;6.68;69.31
64853;BME280;56050;55.558;-4.644;2024-03-23T04:14:15;100574.00;;;6.71;69.12
64853;BME280;56050;55.558;-4.644;2024-03-23T04:16:41;100562.94;;;6.73;68.92
64853;BME280;56050;55.558;-4.644;2024-03-23T04:19:06;100571.38;;;6.75;68.96
64853;BME280;56050;55.558;-4.644;2024-03-23T04:21:31;100555.25;;;6.68;68.72
64853;BME280;56050;55.558;-4.644;2024-03-23T04:23:57;100557.34;;;6.55;68.71
64853;BME280;56050;55.558;-4.644;2024-03-23T04:26:22;100548.78;;;6.42;68.86
64853;BME280;56050;55.558;-4.644;2024-03-23T04:28:48;100534.84;;;6.30;69.18
64853;BME280;56050;55.558;-4.644;2024-03-23T04:31:13;100542.38;;;6.21;69.49
64853;BME280;56050;55.558;-4.644;2024-03-23T04:33:39;100537.34;;;6.16;69.90
64853;BME280;56050;55.558;-4.644;2024-03-23T04:36:04;100544.94;;;6.14;69.96
64853;BME280;56050;55.558;-4.644;2024-03-23T04:38:30;100538.47;;;6.15;70.14
64853;BME280;56050;55.558;-4.644;2024-03-23T04:40:56;100525.91;;;6.19;70.06
64853;BME280;56050;55.558;-4.644;2024-03-23T04:43:21;100526.31;;;6.21;70.11
64853;BME280;56050;55.558;-4.644;2024-03-23T04:45:47;100516.03;;;6.23;69.88
64853;BME280;56050;55.558;-4.644;2024-03-23T04:48:12;100507.19;;;6.19;69.75
64853;BME280;56050;55.558;-4.644;2024-03-23T04:50:38;100517.13;;;6.18;69.66
64853;BME280;56050;55.558;-4.644;2024-03-23T04:53:03;100493.00;;;6.15;69.61
64853;BME280;56050;55.558;-4.644;2024-03-23T04:55:29;100486.47;;;6.12;69.58
64853;BME280;56050;55.558;-4.644;2024-03-23T04:57:54;100482.66;;;6.13;69.68
64853;BME280;56050;55.558;-4.644;2024-03-23T05:00:20;100484.97;;;6.15;69.55
64853;BME280;56050;55.558;-4.644;2024-03-23T05:02:45;100487.72;;;6.18;69.63
64853;BME280;56050;55.558;-4.644;2024-03-23T05:05:11;100498.44;;;6.22;69.15
64853;BME280;56050;55.558;-4.644;2024-03-23T05:07:37;100504.28;;;6.31;67.98
64853;BME280;56050;55.558;-4.644;2024-03-23T05:10:03;100499.06;;;6.41;67.69
64853;BME280;56050;55.558;-4.644;2024-03-23T05:12:28;100508.34;;;6.47;66.86
64853;BME280;56050;55.558;-4.644;2024-03-23T05:14:53;100482.81;;;6.54;66.67
64853;BME280;56050;55.558;-4.644;2024-03-23T05:17:19;100490.13;;;6.60;66.34
64853;BME280;56050;55.558;-4.644;2024-03-23T05:19:44;100472.63;;;6.66;66.15
64853;BME280;56050;55.558;-4.644;2024-03-23T05:22:10;100462.72;;;6.70;65.91
64853;BME280;56050;55.558;-4.644;2024-03-23T05:24:35;100458.94;;;6.75;65.91
64853;BME280;56050;55.558;-4.644;2024-03-23T05:27:00;100463.53;;;6.74;65.97
64853;BME280;56050;55.558;-4.644;2024-03-23T05:29:26;100459.72;;;6.75;66.00
64853;BME280;56050;55.558;-4.644;2024-03-23T05:31:52;100478.50;;;6.79;66.00
64853;BME280;56050;55.558;-4.644;2024-03-23T05:34:18;100479.63;;;6.78;66.14
64853;BME280;56050;55.558;-4.644;2024-03-23T05:36:43;100471.59;;;6.78;66.18
64853;BME280;56050;55.558;-4.644;2024-03-23T05:39:09;100478.84;;;6.77;66.40
64853;BME280;56050;55.558;-4.644;2024-03-23T05:41:35;100488.06;;;6.80;66.41
64853;BME280;56050;55.558;-4.644;2024-03-23T05:44:02;100503.00;;;6.81;66.63
64853;BME280;56050;55.558;-4.644;2024-03-23T05:46:27;100528.19;;;6.76;66.42
64853;BME280;56050;55.558;-4.644;2024-03-23T05:48:53;100487.59;;;6.41;67.05
64853;BME280;56050;55.558;-4.644;2024-03-23T05:51:19;100486.81;;;6.11;68.23
64853;BME280;56050;55.558;-4.644;2024-03-23T05:53:45;100476.13;;;5.84;69.18
64853;BME280;56050;55.558;-4.644;2024-03-23T05:56:10;100470.56;;;5.70;70.08
64853;BME280;56050;55.558;-4.644;2024-03-23T05:58:35;100461.69;;;5.66;70.57
64853;BME280;56050;55.558;-4.644;2024-03-23T06:01:01;100462.91;;;5.69;71.15
64853;BME280;56050;55.558;-4.644;2024-03-23T06:03:27;100461.03;;;5.73;71.64
64853;BME280;56050;55.558;-4.644;2024-03-23T06:05:53;100466.06;;;5.78;71.93
64853;BME280;56050;55.558;-4.644;2024-03-23T06:08:19;100453.56;;;5.82;72.30
64853;BME280;56050;55.558;-4.644;2024-03-23T06:10:45;100464.03;;;5.90;72.54
64853;BME280;56050;55.558;-4.644;2024-03-23T06:13:11;100454.97;;;5.99;72.41
64853;BME280;56050;55.558;-4.644;2024-03-23T06:15:37;100460.50;;;6.13;72.55
64853;BME280;56050;55.558;-4.644;2024-03-23T06:18:03;100497.69;;;6.21;72.74
64853;BME280;56050;55.558;-4.644;2024-03-23T06:20:30;100508.09;;;6.30;72.71
64853;BME280;56050;55.558;-4.644;2024-03-23T06:22:55;100511.19;;;6.32;72.11
64853;BME280;56050;55.558;-4.644;2024-03-23T06:25:21;100510.53;;;6.12;70.88
64853;BME280;56050;55.558;-4.644;2024-03-23T06:27:46;100495.66;;;5.88;71.27
64853;BME280;56050;55.558;-4.644;2024-03-23T06:30:13;100490.03;;;5.71;71.70
64853;BME280;56050;55.558;-4.644;2024-03-23T06:32:38;100462.38;;;5.60;71.84
64853;BME280;56050;55.558;-4.644;2024-03-23T06:35:04;100464.13;;;5.49;71.76
64853;BME280;56050;55.558;-4.644;2024-03-23T06:37:34;100464.34;;;5.40;71.71
64853;BME280;56050;55.558;-4.644;2024-03-23T06:39:59;100463.94;;;5.38;71.75
64853;BME280;56050;55.558;-4.644;2024-03-23T06:42:25;100459.41;;;5.42;71.80
64853;BME280;56050;55.558;-4.644;2024-03-23T06:44:50;100466.00;;;5.48;71.91
64853;BME280;56050;55.558;-4.644;2024-03-23T06:47:16;100463.03;;;5.53;72.66
64853;BME280;56050;55.558;-4.644;2024-03-23T06:49:42;100472.03;;;5.68;72.86
64853;BME280;56050;55.558;-4.644;2024-03-23T06:52:07;100479.13;;;5.83;72.74
64853;BME280;56050;55.558;-4.644;2024-03-23T06:54:32;100463.69;;;5.96;72.36
64853;BME280;56050;55.558;-4.644;2024-03-23T06:56:58;100467.28;;;6.07;72.02
64853;BME280;56050;55.558;-4.644;2024-03-23T06:59:23;100461.63;;;6.12;71.89
64853;BME280;56050;55.558;-4.644;2024-03-23T07:01:49;100460.19;;;6.18;71.86
64853;BME280;56050;55.558;-4.644;2024-03-23T07:04:15;100452.25;;;6.25;71.70
64853;BME280;56050;55.558;-4.644;2024-03-23T07:06:45;100450.41;;;6.29;71.52
64853;BME280;56050;55.558;-4.644;2024-03-23T07:09:11;100462.72;;;6.37;71.54
64853;BME280;56050;55.558;-4.644;2024-03-23T07:11:36;100462.84;;;6.47;71.22
64853;BME280;56050;55.558;-4.644;2024-03-23T07:14:02;100466.34;;;6.52;71.00
64853;BME280;56050;55.558;-4.644;2024-03-23T07:16:31;100461.00;;;6.55;71.10
64853;BME280;56050;55.558;-4.644;2024-03-23T07:18:56;100457.22;;;6.56;70.91
64853;BME280;56050;55.558;-4.644;2024-03-23T07:21:21;100461.84;;;6.59;70.69
64853;BME280;56050;55.558;-4.644;2024-03-23T07:23:47;100456.53;;;6.63;70.60
64853;BME280;56050;55.558;-4.644;2024-03-23T07:26:12;100459.63;;;6.65;70.54
64853;BME280;56050;55.558;-4.644;2024-03-23T07:28:38;100474.16;;;6.67;70.49
64853;BME280;56050;55.558;-4.644;2024-03-23T07:31:11;100471.53;;;6.71;70.41
64853;BME280;56050;55.558;-4.644;2024-03-23T07:33:38;100477.72;;;6.78;70.38
64853;BME280;56050;55.558;-4.644;2024-03-23T07:36:06;100472.78;;;6.80;69.86
64853;BME280;56050;55.558;-4.644;2024-03-23T07:38:31;100469.41;;;6.87;68.93
64853;BME280;56050;55.558;-4.644;2024-03-23T07:41:10;100469.84;;;6.92;68.44
64853;BME280;56050;55.558;-4.644;2024-03-23T07:43:37;100462.22;;;6.94;67.46
64853;BME280;56050;55.558;-4.644;2024-03-23T07:46:03;100461.84;;;6.96;66.69
64853;BME280;56050;55.558;-4.644;2024-03-23T07:48:31;100452.66;;;6.97;65.96
64853;BME280;56050;55.558;-4.644;2024-03-23T07:53:28;100465.38;;;7.03;65.15
64853;BME280;56050;55.558;-4.644;2024-03-23T07:55:59;100458.88;;;7.04;65.00
64853;BME280;56050;55.558;-4.644;2024-03-23T07:58:25;100455.09;;;7.09;65.09
64853;BME280;56050;55.558;-4.644;2024-03-23T08:00:53;100461.66;;;7.15;65.26
64853;BME280;56050;55.558;-4.644;2024-03-23T08:03:19;100455.59;;;7.22;64.87
64853;BME280;56050;55.558;-4.644;2024-03-23T08:05:44;100452.59;;;7.30;64.75
64853;BME280;56050;55.558;-4.644;2024-03-23T08:08:09;100463.00;;;7.39;64.78
64853;BME280;56050;55.558;-4.644;2024-03-23T08:10:36;100461.91;;;7.47;64.98
64853;BME280;56050;55.558;-4.644;2024-03-23T08:13:01;100458.94;;;7.55;64.70
64853;BME280;56050;55.558;-4.644;2024-03-23T08:15:30;100460.44;;;7.53;64.58
64853;BME280;56050;55.558;-4.644;2024-03-23T08:17:55;100462.31;;;7.49;64.56
64853;BME280;56050;55.558;-4.644;2024-03-23T08:20:20;100457.69;;;7.46;64.71
64853;BME280;56050;55.558;-4.644;2024-03-23T08:22:46;100458.47;;;7.43;64.94
64853;BME280;56050;55.558;-4.644;2024-03-23T08:25:12;100471.84;;;7.43;65.49
64853;BME280;56050;55.558;-4.644;2024-03-23T08:27:38;100466.84;;;7.41;65.74
64853;BME280;56050;55.558;-4.644;2024-03-23T08:30:03;100460.72;;;7.41;65.97
64853;BME280;56050;55.558;-4.644;2024-03-23T08:32:28;100463.41;;;7.41;66.20
64853;BME280;56050;55.558;-4.644;2024-03-23T08:34:54;100463.81;;;7.43;66.49
64853;BME280;56050;55.558;-4.644;2024-03-23T08:37:20;100459.25;;;7.47;66.59
64853;BME280;56050;55.558;-4.644;2024-03-23T08:39:45;100457.38;;;7.51;66.52
64853;BME280;56050;55.558;-4.644;2024-03-23T08:42:11;100457.78;;;7.56;66.49
64853;BME280;56050;55.558;-4.644;2024-03-23T08:44:36;100470.47;;;7.63;66.36
64853;BME280;56050;55.558;-4.644;2024-03-23T08:47:01;100460.13;;;7.65;66.27
64853;BME280;56050;55.558;-4.644;2024-03-23T08:49:27;100449.41;;;7.65;66.23
64853;BME280;56050;55.558;-4.644;2024-03-23T08:51:52;100453.72;;;7.73;66.16
64853;BME280;56050;55.558;-4.644;2024-03-23T08:54:19;100449.13;;;7.77;66.20
64853;BME280;56050;55.558;-4.644;2024-03-23T08:56:45;100452.19;;;7.79;66.09
64853;BME280;56050;55.558;-4.644;2024-03-23T08:59:11;100456.06;;;7.85;66.26
64853;BME280;56050;55.558;-4.644;2024-03-23T09:01:36;100461.44;;;7.85;66.17
64853;BME280;56050;55.558;-4.644;2024-03-23T09:04:02;100463.72;;;7.83;66.06
64853;BME280;56050;55.558;-4.644;2024-03-23T09:06:27;100474.44;;;7.83;66.36
64853;BME280;56050;55.558;-4.644;2024-03-23T09:08:53;100470.97;;;7.79;66.66
64853;BME280;56050;55.558;-4.644;2024-03-23T09:11:18;100451.44;;;7.82;66.70
64853;BME280;56050;55.558;-4.644;2024-03-23T09:13:44;100450.66;;;7.82;67.00
64853;BME280;56050;55.558;-4.644;2024-03-23T09:16:09;100435.78;;;7.84;67.17
64853;BME280;56050;55.558;-4.644;2024-03-23T09:18:35;100438.06;;;7.86;67.41
64853;BME280;56050;55.558;-4.644;2024-03-23T09:21:02;100433.88;;;7.88;67.38
64853;BME280;56050;55.558;-4.644;2024-03-23T09:23:28;100438.47;;;7.91;67.24
64853;BME280;56050;55.558;-4.644;2024-03-23T09:25:53;100448.47;;;7.94;67.45
64853;BME280;56050;55.558;-4.644;2024-03-23T09:28:19;100437.38;;;7.99;67.60
64853;BME280;56050;55.558;-4.644;2024-03-23T09:30:44;100444.66;;;7.99;67.58
64853;BME280;56050;55.558;-4.644;2024-03-23T09:33:10;100438.91;;;7.97;67.69
64853;BME280;56050;55.558;-4.644;2024-03-23T09:38:04;100442.66;;;7.85;67.66
64853;BME280;56050;55.558;-4.644;2024-03-23T09:40:29;100433.84;;;7.85;67.83
64853;BME280;56050;55.558;-4.644;2024-03-23T09:42:54;100444.22;;;7.90;68.01
64853;BME280;56050;55.558;-4.644;2024-03-23T09:45:21;100427.38;;;7.93;67.88
64853;BME280;56050;55.558;-4.644;2024-03-23T09:47:47;100422.41;;;7.98;67.89
64853;BME280;56050;55.558;-4.644;2024-03-23T09:50:13;100437.41;;;8.03;67.95
64853;BME280;56050;55.558;-4.644;2024-03-23T09:52:39;100419.44;;;8.10;68.02
64853;BME280;56050;55.558;-4.644;2024-03-23T09:55:08;100408.72;;;8.17;68.06
64853;BME280;56050;55.558;-4.644;2024-03-23T09:57:34;100412.63;;;8.27;68.08
64853;BME280;56050;55.558;-4.644;2024-03-23T09:59:59;100411.13;;;8.33;68.05
64853;BME280;56050;55.558;-4.644;2024-03-23T10:02:25;100403.09;;;8.44;68.11
64853;BME280;56050;55.558;-4.644;2024-03-23T10:04:51;100402.38;;;8.50;68.19
64853;BME280;56050;55.558;-4.644;2024-03-23T10:07:21;100392.38;;;8.51;68.04
64853;BME280;56050;55.558;-4.644;2024-03-23T10:09:48;100396.59;;;8.52;68.39
64853;BME280;56050;55.558;-4.644;2024-03-23T10:12:15;100386.25;;;8.54;68.70
64853;BME280;56050;55.558;-4.644;2024-03-23T10:14:41;100399.28;;;8.52;69.02
64853;BME280;56050;55.558;-4.644;2024-03-23T10:17:18;100403.13;;;8.47;69.19
64853;BME280;56050;55.558;-4.644;2024-03-23T10:22:14;100411.88;;;8.30;69.98
64853;BME280;56050;55.558;-4.644;2024-03-23T10:24:40;100427.50;;;8.21;70.26
64853;BME280;56050;55.558;-4.644;2024-03-23T10:27:06;100431.69;;;8.11;70.75
64853;BME280;56050;55.558;-4.644;2024-03-23T10:29:34;100433.16;;;8.02;71.14
64853;BME280;56050;55.558;-4.644;2024-03-23T10:32:13;100425.47;;;7.93;71.84
64853;BME280;56050;55.558;-4.644;2024-03-23T10:34:40;100423.94;;;7.92;72.18
64853;BME280;56050;55.558;-4.644;2024-03-23T10:37:07;100427.38;;;7.89;72.60
64853;BME280;56050;55.558;-4.644;2024-03-23T10:39:35;100425.03;;;7.88;72.64
64853;BME280;56050;55.558;-4.644;2024-03-23T10:42:05;100422.00;;;7.89;73.10
64853;BME280;56050;55.558;-4.644;2024-03-23T10:44:31;100415.91;;;7.92;73.18
64853;BME280;56050;55.558;-4.644;2024-03-23T10:46:58;100415.91;;;7.99;73.29
64853;BME280;56050;55.558;-4.644;2024-03-23T10:49:28;100412.88;;;8.01;73.24
64853;BME280;56050;55.558;-4.644;2024-03-23T10:51:56;100412.50;;;8.02;73.08
64853;BME280;56050;55.558;-4.644;2024-03-23T10:54:22;100420.16;;;8.07;72.87
64853;BME280;56050;55.558;-4.644;2024-03-23T10:56:58;100410.25;;;8.11;73.08
64853;BME280;56050;55.558;-4.644;2024-03-23T10:59:25;100409.13;;;8.19;73.15
64853;BME280;56050;55.558;-4.644;2024-03-23T11:01:58;100410.66;;;8.24;73.10
64853;BME280;56050;55.558;-4.644;2024-03-23T11:04:37;100417.19;;;8.26;73.03
64853;BME280;56050;55.558;-4.644;2024-03-23T11:09:48;100429.78;;;8.15;73.99
64853;BME280;56050;55.558;-4.644;2024-03-23T11:14:51;100412.53;;;8.13;74.82
64853;BME280;56050;55.558;-4.644;2024-03-23T11:17:23;100401.81;;;8.16;74.91
64853;BME280;56050;55.558;-4.644;2024-03-23T11:20:05;100401.81;;;8.16;75.16
64853;BME280;56050;55.558;-4.644;2024-03-23T11:25:19;100402.25;;;8.25;75.13
64853;BME280;56050;55.558;-4.644;2024-03-23T11:27:47;100391.16;;;8.27;75.25
64853;BME280;56050;55.558;-4.644;2024-03-23T11:30:17;100395.78;;;8.30;75.11
64853;BME280;56050;55.558;-4.644;2024-03-23T11:32:45;100393.50;;;8.36;75.05
64853;BME280;56050;55.558;-4.644;2024-03-23T11:35:13;100390.06;;;8.42;74.97
64853;BME280;56050;55.558;-4.644;2024-03-23T11:38:01;100393.91;;;8.52;74.54
64853;BME280;56050;55.558;-4.644;2024-03-23T11:40:27;100401.63;;;8.64;73.78
64853;BME280;56050;55.558;-4.644;2024-03-23T11:43:01;100393.59;;;8.74;73.31
64853;BME280;56050;55.558;-4.644;2024-03-23T11:45:28;100392.47;;;8.86;73.03
64853;BME280;56050;55.558;-4.644;2024-03-23T11:48:07;100390.53;;;9.01;72.51
64853;BME280;56050;55.558;-4.644;2024-03-23T11:50:35;100406.69;;;9.18;72.01
64853;BME280;56050;55.558;-4.644;2024-03-23T11:55:48;100396.69;;;9.40;70.43
64853;BME280;56050;55.558;-4.644;2024-03-23T11:58:14;100400.88;;;9.44;69.96
64853;BME280;56050;55.558;-4.644;2024-03-23T12:00:40;100404.00;;;9.36;69.61
64853;BME280;56050;55.558;-4.644;2024-03-23T12:03:06;100399.38;;;9.26;69.42
64853;BME280;56050;55.558;-4.644;2024-03-23T12:05:32;100402.44;;;9.17;69.50
64853;BME280;56050;55.558;-4.644;2024-03-23T12:10:48;100437.75;;;9.09;69.46
64853;BME280;56050;55.558;-4.644;2024-03-23T12:13:21;100438.47;;;8.81;69.30
64853;BME280;56050;55.558;-4.644;2024-03-23T12:15:50;100430.34;;;8.56;70.47
64853;BME280;56050;55.558;-4.644;2024-03-23T12:18:16;100423.41;;;8.41;71.87
64853;BME280;56050;55.558;-4.644;2024-03-23T12:20:41;100427.97;;;8.30;73.06
64853;BME280;56050;55.558;-4.644;2024-03-23T12:23:11;100445.56;;;8.24;73.85
64853;BME280;56050;55.558;-4.644;2024-03-23T12:25:37;100448.50;;;8.01;73.83
64853;BME280;56050;55.558;-4.644;2024-03-23T12:28:03;100448.34;;;7.77;73.98
64853;BME280;56050;55.558;-4.644;2024-03-23T12:30:40;100449.72;;;7.53;74.44
64853;BME280;56050;55.558;-4.644;2024-03-23T12:33:06;100444.63;;;7.41;75.21
64853;BME280;56050;55.558;-4.644;2024-03-23T12:35:31;100429.72;;;7.40;75.71
64853;BME280;56050;55.558;-4.644;2024-03-23T12:37:57;100422.47;;;7.44;76.05
64853;BME280;56050;55.558;-4.644;2024-03-23T12:40:22;100432.84;;;7.49;76.52
64853;BME280;56050;55.558;-4.644;2024-03-23T12:42:48;100429.03;;;7.50;76.72
64853;BME280;56050;55.558;-4.644;2024-03-23T12:45:13;100426.72;;;7.52;76.94
64853;BME280;56050;55.558;-4.644;2024-03-23T12:47:39;100426.38;;;7.53;76.93
64853;BME280;56050;55.558;-4.644;2024-03-23T12:50:04;100415.28;;;7.55;77.29
64853;BME280;56050;55.558;-4.644;2024-03-23T12:52:31;100413.75;;;7.57;77.45
64853;BME280;56050;55.558;-4.644;2024-03-23T12:54:58;100409.97;;;7.62;77.60
64853;BME280;56050;55.558;-4.644;2024-03-23T12:57:24;100414.22;;;7.70;77.85
64853;BME280;56050;55.558;-4.644;2024-03-23T12:59:53;100415.81;;;7.82;78.15
64853;BME280;56050;55.558;-4.644;2024-03-23T13:02:19;100413.97;;;7.93;78.19
64853;BME280;56050;55.558;-4.644;2024-03-23T13:04:49;100424.75;;;8.03;78.17
64853;BME280;56050;55.558;-4.644;2024-03-23T13:07:15;100424.81;;;8.17;78.20
64853;BME280;56050;55.558;-4.644;2024-03-23T13:09:41;100416.09;;;8.27;78.08
64853;BME280;56050;55.558;-4.644;2024-03-23T13:12:07;100423.78;;;8.36;77.77
64853;BME280;56050;55.558;-4.644;2024-03-23T13:14:33;100421.50;;;8.42;77.59
64853;BME280;56050;55.558;-4.644;2024-03-23T13:16:58;100429.56;;;8.49;77.52
64853;BME280;56050;55.558;-4.644;2024-03-23T13:19:24;100431.88;;;8.54;77.24
64853;BME280;56050;55.558;-4.644;2024-03-23T13:21:53;100434.97;;;8.59;77.31
64853;BME280;56050;55.558;-4.644;2024-03-23T13:24:22;100434.25;;;8.69;77.28
64853;BME280;56050;55.558;-4.644;2024-03-23T13:26:49;100430.44;;;8.77;77.07
64853;BME280;56050;55.558;-4.644;2024-03-23T13:29:14;100437.72;;;8.84;76.88
64853;BME280;56050;55.558;-4.644;2024-03-23T13:31:40;100433.50;;;8.90;76.24
64853;BME280;56050;55.558;-4.644;2024-03-23T13:34:07;100439.66;;;8.98;75.64
64853;BME280;56050;55.558;-4.644;2024-03-23T13:36:32;100435.47;;;9.07;75.34
64853;BME280;56050;55.558;-4.644;2024-03-23T13:38:59;100443.53;;;9.18;75.16
64853;BME280;56050;55.558;-4.644;2024-03-23T13:41:24;100447.38;;;9.27;74.52
64853;BME280;56050;55.558;-4.644;2024-03-23T13:43:50;100439.72;;;9.33;73.86
64853;BME280;56050;55.558;-4.644;2024-03-23T13:46:15;100438.94;;;9.36;73.74
64853;BME280;56050;55.558;-4.644;2024-03-23T13:48:42;100440.09;;;9.38;73.55
64853;BME280;56050;55.558;-4.644;2024-03-23T13:51:07;100442.00;;;9.45;73.78
64853;BME280;56050;55.558;-4.644;2024-03-23T13:53:34;100446.22;;;9.53;73.85
64853;BME280;56050;55.558;-4.644;2024-03-23T13:55:59;100466.59;;;9.58;73.55
64853;BME280;56050;55.558;-4.644;2024-03-23T13:58:25;100464.28;;;9.60;73.27
64853;BME280;56050;55.558;-4.644;2024-03-23T14:00:50;100458.13;;;9.63;72.52